createdAt,value
2022-12-28T00:01:44.977Z,2.20
2022-12-28T00:04:17.866Z,3.57
2022-12-28T00:06:45.459Z,4.37
2022-12-28T00:09:13.144Z,4.40
2022-12-28T00:11:40.612Z,3.60
2022-12-28T00:14:07.704Z,4.33
2022-12-28T00:16:38.202Z,4.20
2022-12-28T00:19:11.624Z,3.90
2022-12-28T00:21:39.037Z,3.13
2022-12-28T00:24:07.676Z,3.20
2022-12-28T00:26:35.752Z,4.40
2022-12-28T00:29:05.280Z,3.23
2022-12-28T00:31:34.168Z,4.23
2022-12-28T00:34:02.549Z,3.80
2022-12-28T00:37:09.011Z,3.90
2022-12-28T00:39:16.672Z,4.23
2022-12-28T00:41:43.683Z,4.10
2022-12-28T00:44:10.865Z,3.60
2022-12-28T00:46:37.892Z,3.70
2022-12-28T00:49:04.973Z,4.00
2022-12-28T00:51:31.814Z,4.73
2022-12-28T00:53:58.643Z,4.67
2022-12-28T00:56:25.495Z,4.50
2022-12-28T00:58:58.133Z,3.53
2022-12-28T01:01:26.381Z,4.57
2022-12-28T01:03:56.901Z,4.90
2022-12-28T01:06:24.082Z,4.30
2022-12-28T01:08:51.274Z,5.03
2022-12-28T01:11:25.824Z,5.00
2022-12-28T01:13:55.117Z,4.83
2022-12-28T01:16:24.885Z,4.13
2022-12-28T01:18:55.225Z,3.37
2022-12-28T01:21:25.309Z,5.00
2022-12-28T01:24:00.124Z,3.33
2022-12-28T01:26:29.230Z,4.57
2022-12-28T01:28:58.030Z,4.17
2022-12-28T01:31:25.017Z,4.50
2022-12-28T01:33:52.134Z,3.93
2022-12-28T01:36:24.033Z,3.80
2022-12-28T01:39:00.115Z,3.30
2022-12-28T01:41:31.646Z,3.47
2022-12-28T01:43:58.787Z,3.30
2022-12-28T01:46:37.360Z,4.97
2022-12-28T01:49:11.190Z,4.83
2022-12-28T01:52:08.551Z,4.17
2022-12-28T01:54:52.040Z,3.83
2022-12-28T01:57:24.705Z,4.17
2022-12-28T02:00:01.766Z,4.33
2022-12-28T02:02:30.795Z,4.43
2022-12-28T02:05:00.232Z,4.43
2022-12-28T02:07:46.532Z,5.10
2022-12-28T02:10:42.902Z,4.00
2022-12-28T02:13:04.513Z,4.00
2022-12-28T02:15:31.295Z,3.33
2022-12-28T02:17:59.282Z,4.00
2022-12-28T02:20:48.858Z,4.10
2022-12-28T02:24:35.958Z,3.93
2022-12-28T02:27:43.176Z,4.00
2022-12-28T02:30:13.084Z,4.43
2022-12-28T02:33:06.958Z,2.93
2022-12-28T02:35:52.938Z,4.77
2022-12-28T02:38:27.874Z,4.70
2022-12-28T02:41:09.497Z,4.47
2022-12-28T02:43:36.851Z,3.33
2022-12-28T02:46:44.805Z,4.80
2022-12-28T02:49:46.024Z,3.47
2022-12-28T02:52:40.588Z,4.43
2022-12-28T02:55:31.982Z,3.63
2022-12-28T02:58:29.603Z,4.73
2022-12-28T03:01:49.742Z,4.37
2022-12-28T03:04:45.258Z,4.23
2022-12-28T03:07:55.226Z,4.83
2022-12-28T03:10:54.449Z,4.63
2022-12-28T03:13:43.173Z,3.23
2022-12-28T03:16:58.187Z,3.47
2022-12-28T03:19:54.387Z,3.40
2022-12-28T03:22:43.262Z,4.40
2022-12-28T03:25:35.273Z,4.23
2022-12-28T03:28:26.181Z,4.83
2022-12-28T03:31:06.738Z,4.40
2022-12-28T03:33:46.212Z,3.23
2022-12-28T03:36:19.916Z,4.40
2022-12-28T03:39:30.307Z,4.60
2022-12-28T03:42:34.914Z,4.20
2022-12-28T03:45:45.101Z,4.20
2022-12-28T03:48:15.925Z,4.13
2022-12-28T03:50:48.170Z,4.03
2022-12-28T03:53:19.124Z,3.60
2022-12-28T03:55:45.966Z,4.50
2022-12-28T03:58:12.896Z,3.33
2022-12-28T04:00:39.661Z,3.80
2022-12-28T04:03:06.688Z,4.10
2022-12-28T04:05:34.018Z,2.87
2022-12-28T04:08:00.906Z,4.90
2022-12-28T04:10:27.761Z,4.10
2022-12-28T04:12:56.828Z,1.80
2022-12-28T04:15:23.947Z,4.33
2022-12-28T04:17:50.793Z,3.60
2022-12-28T04:20:17.623Z,3.60
2022-12-28T04:22:44.983Z,3.63
2022-12-28T04:25:11.833Z,4.33
2022-12-28T04:27:38.611Z,3.70
2022-12-28T04:30:06.527Z,2.20
2022-12-28T04:32:33.338Z,4.60
2022-12-28T04:35:00.100Z,3.40
2022-12-28T04:37:26.917Z,4.10
2022-12-28T04:39:56.068Z,1.67
2022-12-28T04:42:25.841Z,4.13
2022-12-28T04:44:52.778Z,3.27
2022-12-28T04:47:19.625Z,4.40
2022-12-28T04:49:46.563Z,4.03
2022-12-28T04:52:13.714Z,4.27
2022-12-28T04:54:40.549Z,2.50
2022-12-28T04:57:07.393Z,1.37
2022-12-28T04:59:34.385Z,4.30
2022-12-28T05:02:01.501Z,3.20
2022-12-28T05:04:28.444Z,3.90
2022-12-28T05:06:55.227Z,2.70
2022-12-28T05:09:22.129Z,2.63
2022-12-28T05:11:49.540Z,3.97
2022-12-28T05:14:16.333Z,4.07
2022-12-28T05:16:43.141Z,3.83
2022-12-28T05:19:09.945Z,2.90
2022-12-28T05:21:36.764Z,4.93
2022-12-28T05:24:03.857Z,3.80
2022-12-28T05:26:30.755Z,4.27
2022-12-28T05:28:58.812Z,4.17
2022-12-28T05:31:26.519Z,3.77
2022-12-28T05:33:54.660Z,3.97
2022-12-28T05:36:26.260Z,4.50
2022-12-28T05:38:54.690Z,3.50
2022-12-28T05:41:28.636Z,4.07
2022-12-28T05:43:58.407Z,3.60
2022-12-28T05:46:29.758Z,3.40
2022-12-28T05:48:57.282Z,4.07
2022-12-28T05:51:28.117Z,2.97
2022-12-28T05:53:56.015Z,3.60
2022-12-28T05:56:26.401Z,3.77
2022-12-28T05:59:02.286Z,3.73
2022-12-28T06:01:37.381Z,3.60
2022-12-28T06:04:08.055Z,3.33
2022-12-28T06:06:36.171Z,3.83
2022-12-28T06:09:04.226Z,3.67
2022-12-28T06:11:31.729Z,3.27
2022-12-28T06:13:59.730Z,3.20
2022-12-28T06:16:33.084Z,3.60
2022-12-28T06:19:03.468Z,4.13
2022-12-28T06:21:34.090Z,4.33
2022-12-28T06:24:02.375Z,3.53
2022-12-28T06:26:33.675Z,3.67
2022-12-28T06:29:02.045Z,3.57
2022-12-28T06:31:36.115Z,3.80
2022-12-28T06:34:05.345Z,4.20
2022-12-28T06:36:43.408Z,3.63
2022-12-28T06:39:13.713Z,3.60
2022-12-28T06:41:41.602Z,3.63
2022-12-28T06:44:13.760Z,3.70
2022-12-28T06:46:41.659Z,3.87
2022-12-28T06:49:08.479Z,2.90
2022-12-28T06:51:40.445Z,3.47
2022-12-28T06:54:09.197Z,3.17
2022-12-28T06:56:36.348Z,2.83
2022-12-28T06:59:04.417Z,3.73
2022-12-28T07:01:38.701Z,3.07
2022-12-28T07:04:08.737Z,3.10
2022-12-28T07:06:42.425Z,2.50
2022-12-28T07:09:13.566Z,3.47
2022-12-28T07:11:41.041Z,2.90
2022-12-28T07:14:08.146Z,2.70
2022-12-28T07:19:01.113Z,3.10
2022-12-28T07:21:37.149Z,2.93
2022-12-28T07:24:05.985Z,2.60
2022-12-28T07:26:35.867Z,2.60
2022-12-28T07:29:06.732Z,2.27
2022-12-28T07:31:44.739Z,2.73
2022-12-28T07:34:16.077Z,2.63
2022-12-28T07:36:43.765Z,2.50
2022-12-28T07:39:10.707Z,2.83
2022-12-28T07:41:37.592Z,2.47
2022-12-28T07:44:04.628Z,2.90
2022-12-28T07:46:35.617Z,2.80
2022-12-28T07:49:02.909Z,2.57
2022-12-28T07:51:36.056Z,2.57
2022-12-28T07:54:04.389Z,2.60
2022-12-28T07:59:03.100Z,2.50
2022-12-28T08:01:33.729Z,2.87
2022-12-28T08:04:04.377Z,2.83
2022-12-28T08:06:36.201Z,2.20
2022-12-28T08:09:04.761Z,2.53
2022-12-28T08:11:35.169Z,2.60
2022-12-28T08:14:03.743Z,2.33
2022-12-28T08:16:34.604Z,2.37
2022-12-28T08:19:02.456Z,2.20
2022-12-28T08:21:42.010Z,2.20
2022-12-28T08:24:13.461Z,1.73
2022-12-28T08:26:41.447Z,2.73
2022-12-28T08:29:14.692Z,3.03
2022-12-28T08:31:44.602Z,2.40
2022-12-28T08:34:19.323Z,2.67
2022-12-28T08:36:46.687Z,2.73
2022-12-28T08:39:14.541Z,2.50
2022-12-28T08:41:41.680Z,2.40
2022-12-28T08:44:08.569Z,1.93
2022-12-28T08:46:36.537Z,2.30
2022-12-28T08:49:05.745Z,1.77
2022-12-28T08:51:42.391Z,2.60
2022-12-28T08:54:12.434Z,2.00
2022-12-28T08:56:42.405Z,2.43
2022-12-28T08:59:10.904Z,2.73
2022-12-28T09:01:44.143Z,1.93
2022-12-28T09:04:22.106Z,2.40
2022-12-28T09:06:50.850Z,2.63
2022-12-28T09:09:19.984Z,2.13
2022-12-28T09:11:49.267Z,1.70
2022-12-28T09:14:23.346Z,2.47
2022-12-28T09:16:54.846Z,2.00
2022-12-28T09:19:22.826Z,2.43
2022-12-28T09:21:52.920Z,2.63
2022-12-28T09:24:19.994Z,2.23
2022-12-28T09:26:47.089Z,2.37
2022-12-28T09:29:14.790Z,2.10
2022-12-28T09:31:43.946Z,2.60
2022-12-28T09:37:00.994Z,2.23
2022-12-28T09:39:28.714Z,2.30
2022-12-28T09:42:10.605Z,2.17
2022-12-28T09:45:08.792Z,1.90
2022-12-28T09:47:51.809Z,2.40
2022-12-28T09:50:18.744Z,2.33
2022-12-28T09:53:06.916Z,2.50
2022-12-28T09:55:41.514Z,2.40
2022-12-28T09:58:16.897Z,2.40
2022-12-28T10:00:52.037Z,2.50
2022-12-28T10:03:27.251Z,2.33
2022-12-28T10:05:57.721Z,2.50
2022-12-28T10:08:26.281Z,2.07
2022-12-28T10:10:56.439Z,2.20
2022-12-28T10:16:21.822Z,2.63
2022-12-28T10:18:49.947Z,2.30
2022-12-28T10:21:21.666Z,2.40
2022-12-28T10:24:29.854Z,1.90
2022-12-28T10:26:45.917Z,2.27
2022-12-28T10:29:21.215Z,1.93
2022-12-28T10:32:03.472Z,2.23
2022-12-28T10:34:35.102Z,2.90
2022-12-28T10:37:17.519Z,2.40
2022-12-28T10:39:53.227Z,5.73
2022-12-28T10:42:35.923Z,2.83
2022-12-28T10:45:07.844Z,2.80
2022-12-28T10:47:43.045Z,2.60
2022-12-28T10:50:47.946Z,2.80
2022-12-28T10:53:42.076Z,3.13
2022-12-28T10:56:14.713Z,2.37
2022-12-28T10:58:44.957Z,2.87
2022-12-28T11:01:14.899Z,2.97
2022-12-28T11:04:00.357Z,2.77
2022-12-28T11:06:50.374Z,3.33
2022-12-28T11:09:35.271Z,2.70
2022-12-28T11:12:26.632Z,2.80
2022-12-28T11:14:54.315Z,2.47
2022-12-28T11:17:29.273Z,2.20
2022-12-28T11:20:21.051Z,2.50
2022-12-28T11:22:48.431Z,2.40
2022-12-28T11:25:18.486Z,2.53
2022-12-28T11:27:48.081Z,2.80
2022-12-28T11:30:20.258Z,2.83
2022-12-28T11:33:01.344Z,2.57
2022-12-28T11:35:38.666Z,2.60
2022-12-28T11:38:07.408Z,2.30
2022-12-28T11:40:49.261Z,2.90
2022-12-28T11:43:32.007Z,2.23
2022-12-28T11:46:01.991Z,2.20
2022-12-28T11:48:44.041Z,2.50
2022-12-28T11:51:22.516Z,2.07
2022-12-28T11:53:49.205Z,1.95
2022-12-28T11:56:21.769Z,1.52
2022-12-28T11:59:04.941Z,2.23
2022-12-28T12:01:37.089Z,2.33
2022-12-28T12:04:03.940Z,2.25
2022-12-28T12:06:47.116Z,2.10
2022-12-28T12:09:25.903Z,2.27
2022-12-28T12:11:54.520Z,1.90
2022-12-28T12:14:35.913Z,2.17
2022-12-28T12:17:13.057Z,2.10
2022-12-28T12:19:48.297Z,2.10
2022-12-28T12:22:21.530Z,2.45
2022-12-28T12:25:15.793Z,2.13
2022-12-28T12:27:55.283Z,1.88
2022-12-28T12:30:23.671Z,2.03
2022-12-28T12:33:03.598Z,2.27
2022-12-28T12:36:08.325Z,1.90
2022-12-28T12:39:05.692Z,1.75
2022-12-28T12:41:54.641Z,1.80
2022-12-28T12:44:59.479Z,1.37
2022-12-28T12:48:19.257Z,1.48
2022-12-28T12:51:25.579Z,1.77
2022-12-28T12:54:07.645Z,2.00
2022-12-28T12:56:49.488Z,2.10
2022-12-28T12:59:59.192Z,2.00
2022-12-28T13:02:47.798Z,1.77
2022-12-28T13:05:23.649Z,1.90
2022-12-28T13:07:53.063Z,1.93
2022-12-28T13:10:34.913Z,1.73
2022-12-28T13:13:05.506Z,1.70
2022-12-28T13:15:32.899Z,1.80
2022-12-28T13:18:44.038Z,2.07
2022-12-28T13:21:12.257Z,2.43
2022-12-28T13:23:45.531Z,1.97
2022-12-28T13:26:15.419Z,2.20
2022-12-28T13:28:56.930Z,2.20
2022-12-28T13:31:38.807Z,2.40
2022-12-28T13:34:25.161Z,2.50
2022-12-28T13:36:58.582Z,1.90
2022-12-28T13:39:39.972Z,1.80
2022-12-28T13:42:41.951Z,2.37
2022-12-28T13:45:16.645Z,2.10
2022-12-28T13:47:50.910Z,2.30
2022-12-28T13:50:24.323Z,2.20
2022-12-28T13:53:02.698Z,2.10
2022-12-28T13:55:34.750Z,2.10
2022-12-28T13:58:09.558Z,1.97
2022-12-28T14:00:38.816Z,1.63
2022-12-28T14:03:10.468Z,1.80
2022-12-28T14:05:41.570Z,2.10
2022-12-28T14:08:08.469Z,2.03
2022-12-28T14:10:36.223Z,1.90
2022-12-28T14:13:04.924Z,1.93
2022-12-28T14:15:40.583Z,2.30
2022-12-28T14:18:09.753Z,2.13
2022-12-28T14:20:54.575Z,2.10
2022-12-28T14:23:29.043Z,2.37
2022-12-28T14:26:01.143Z,2.30
2022-12-28T14:28:39.298Z,2.43
2022-12-28T14:31:09.119Z,2.70
2022-12-28T14:33:57.810Z,2.30
2022-12-28T14:36:48.425Z,2.40
2022-12-28T14:39:40.185Z,1.97
2022-12-28T14:42:20.824Z,2.50
2022-12-28T14:44:52.492Z,2.00
2022-12-28T14:47:46.877Z,1.93
2022-12-28T14:50:24.920Z,2.00
2022-12-28T14:53:13.656Z,1.67
2022-12-28T14:56:05.317Z,1.80
2022-12-28T14:59:02.114Z,2.20
2022-12-28T15:01:49.390Z,1.90
2022-12-28T15:04:40.354Z,2.10
2022-12-28T15:07:10.155Z,1.97
2022-12-28T15:09:37.223Z,2.17
2022-12-28T15:12:16.045Z,1.70
2022-12-28T15:14:44.845Z,2.17
2022-12-28T15:17:12.224Z,1.90
2022-12-28T15:19:39.278Z,2.07
2022-12-28T15:22:06.275Z,1.80
2022-12-28T15:24:34.645Z,1.20
2022-12-28T15:27:03.155Z,1.73
2022-12-28T15:32:16.931Z,1.60
2022-12-28T15:34:43.869Z,1.87
2022-12-28T15:37:10.653Z,1.80
2022-12-28T15:39:37.631Z,1.70
2022-12-28T15:42:04.611Z,2.27
2022-12-28T15:44:31.398Z,2.27
2022-12-28T15:46:58.239Z,2.33
2022-12-28T15:49:25.139Z,2.20
2022-12-28T15:51:51.994Z,2.20
2022-12-28T15:54:19.503Z,2.07
2022-12-28T15:56:55.696Z,2.50
2022-12-28T15:59:22.560Z,2.30
2022-12-28T16:01:49.723Z,1.80
2022-12-28T16:04:17.769Z,2.27
2022-12-28T16:06:45.429Z,2.10
2022-12-28T16:09:14.029Z,2.50
2022-12-28T16:11:41.705Z,2.27
2022-12-28T16:14:16.725Z,2.20
2022-12-28T16:16:44.832Z,2.10
2022-12-28T16:19:14.656Z,2.00
2022-12-28T16:21:43.381Z,2.60
2022-12-28T16:24:11.109Z,1.70
2022-12-28T16:26:38.273Z,2.20
2022-12-28T16:29:05.095Z,2.03
2022-12-28T16:31:38.358Z,2.00
2022-12-28T16:34:14.927Z,1.33
2022-12-28T16:36:44.672Z,1.90
2022-12-28T16:39:15.200Z,2.10
2022-12-28T16:41:42.191Z,1.93
2022-12-28T16:44:19.138Z,1.60
2022-12-28T16:46:46.651Z,2.27
2022-12-28T16:49:13.820Z,1.90
2022-12-28T16:51:43.869Z,2.03
2022-12-28T16:54:18.159Z,2.43
2022-12-28T16:56:46.780Z,1.90
2022-12-28T16:59:26.804Z,1.70
2022-12-28T17:09:52.980Z,2.10
2022-12-28T17:12:20.857Z,2.03
2022-12-28T17:14:47.663Z,1.80
2022-12-28T17:17:14.421Z,1.60
2022-12-28T17:19:41.164Z,1.67
2022-12-28T17:22:08.043Z,1.97
2022-12-28T17:24:34.816Z,2.33
2022-12-28T17:27:07.668Z,2.00
2022-12-28T17:29:38.232Z,1.87
2022-12-28T17:32:07.322Z,2.30
2022-12-28T17:34:34.697Z,1.93
2022-12-28T17:37:01.586Z,1.70
2022-12-28T17:39:28.470Z,1.37
2022-12-28T17:41:55.328Z,1.57
2022-12-28T17:44:22.244Z,2.00
2022-12-28T17:46:49.411Z,1.70
2022-12-28T17:49:16.537Z,2.07
2022-12-28T17:51:44.384Z,1.83
2022-12-28T17:54:14.870Z,1.77
2022-12-28T17:56:43.049Z,1.97
2022-12-28T17:59:16.105Z,1.70
2022-12-28T18:01:43.672Z,1.90
2022-12-28T18:04:12.013Z,1.40
2022-12-28T18:06:39.294Z,1.83
2022-12-28T18:09:06.112Z,1.80
2022-12-28T18:11:32.980Z,0.73
2022-12-28T18:13:59.741Z,1.83
2022-12-28T18:16:27.898Z,1.90
2022-12-28T18:18:54.877Z,1.97
2022-12-28T18:21:23.139Z,1.80
2022-12-28T18:23:52.513Z,1.80
2022-12-28T18:26:23.734Z,1.90
2022-12-28T18:28:58.369Z,1.70
2022-12-28T18:31:25.886Z,1.80
2022-12-28T18:33:53.384Z,1.50
2022-12-28T18:36:20.259Z,2.15
2022-12-28T18:38:49.878Z,1.60
2022-12-28T18:41:20.760Z,1.93
2022-12-28T18:43:48.690Z,1.80
2022-12-28T18:46:15.818Z,1.70
2022-12-28T18:48:42.777Z,1.80
2022-12-28T18:51:17.315Z,1.90
2022-12-28T18:53:45.263Z,2.17
2022-12-28T18:56:19.166Z,2.20
2022-12-28T18:58:52.487Z,4.77
2022-12-28T19:04:16.639Z,2.03
2022-12-28T19:06:44.506Z,2.30
2022-12-28T19:09:12.137Z,1.60
2022-12-28T19:11:40.297Z,2.40
2022-12-28T19:14:10.541Z,2.20
2022-12-28T19:16:37.366Z,1.67
2022-12-28T19:19:04.214Z,2.60
2022-12-28T19:21:36.178Z,1.80
2022-12-28T19:24:12.790Z,2.43
2022-12-28T19:26:39.611Z,1.93
2022-12-28T19:29:07.654Z,2.20
2022-12-28T19:31:34.809Z,3.20
2022-12-28T19:34:01.749Z,2.80
2022-12-28T19:36:28.892Z,2.77
2022-12-28T19:38:57.062Z,2.60
2022-12-28T19:41:24.491Z,2.90
2022-12-28T19:43:51.574Z,2.30
2022-12-28T19:46:30.567Z,2.93
2022-12-28T19:48:59.407Z,2.83
2022-12-28T19:51:30.585Z,2.27
2022-12-28T19:53:58.843Z,3.07
2022-12-28T19:56:25.649Z,1.43
2022-12-28T19:58:57.831Z,2.90
2022-12-28T20:01:31.358Z,2.17
2022-12-28T20:03:59.855Z,3.20
2022-12-28T20:06:29.246Z,3.37
2022-12-28T20:08:59.539Z,2.60
2022-12-28T20:11:28.995Z,2.70
2022-12-28T20:14:05.570Z,2.20
2022-12-28T20:16:34.850Z,2.97
2022-12-28T20:19:06.276Z,2.92
2022-12-28T20:21:34.022Z,2.20
2022-12-28T20:24:01.654Z,2.80
2022-12-28T20:26:29.862Z,2.40
2022-12-28T20:28:59.074Z,2.50
2022-12-28T20:31:26.957Z,1.50
2022-12-28T20:33:54.192Z,2.60
2022-12-28T20:36:27.394Z,2.80
2022-12-28T20:38:55.612Z,2.77
2022-12-28T20:41:47.192Z,2.43
2022-12-28T20:44:21.552Z,2.50
2022-12-28T20:46:48.420Z,2.90
2022-12-28T20:49:15.206Z,2.53
2022-12-28T20:51:42.937Z,2.53
2022-12-28T20:54:10.771Z,2.87
2022-12-28T20:56:38.604Z,2.55
2022-12-28T20:59:06.105Z,2.67
2022-12-28T21:01:35.558Z,2.25
2022-12-28T21:04:02.947Z,2.90
2022-12-28T21:06:29.981Z,3.27
2022-12-28T21:08:56.872Z,1.27
2022-12-28T21:11:24.508Z,3.23
2022-12-28T21:13:51.468Z,3.00
2022-12-28T21:16:18.745Z,3.00
2022-12-28T21:18:45.709Z,2.93
2022-12-28T21:21:19.171Z,2.27
2022-12-28T21:23:46.200Z,2.43
2022-12-28T21:26:17.646Z,3.13
2022-12-28T21:28:48.176Z,2.25
2022-12-28T21:31:15.357Z,3.10
2022-12-28T21:33:42.508Z,2.40
2022-12-28T21:36:19.187Z,2.83
2022-12-28T21:38:48.669Z,2.60
2022-12-28T21:41:41.667Z,2.80
2022-12-28T21:44:13.194Z,2.50
2022-12-28T21:46:41.812Z,2.78
2022-12-28T21:49:09.403Z,2.57
2022-12-28T21:51:38.289Z,2.35
2022-12-28T21:54:15.392Z,2.70
2022-12-28T21:56:45.058Z,2.60
2022-12-28T21:59:13.502Z,2.53
2022-12-28T22:02:00.807Z,2.53
2022-12-28T22:04:47.178Z,2.57
2022-12-28T22:07:17.579Z,2.90
2022-12-28T22:10:03.331Z,2.72
2022-12-28T22:12:36.797Z,1.35
2022-12-28T22:15:36.111Z,2.00
2022-12-28T22:21:12.566Z,2.77
2022-12-28T22:23:39.436Z,2.53
2022-12-28T22:26:06.416Z,2.55
2022-12-28T22:28:33.484Z,2.50
2022-12-28T22:31:08.689Z,2.20
2022-12-28T22:33:35.749Z,2.40
2022-12-28T22:36:14.931Z,2.78
2022-12-28T22:38:41.817Z,2.70
2022-12-28T22:41:09.623Z,2.47
2022-12-28T22:43:36.619Z,2.43
2022-12-28T22:46:11.610Z,2.35
2022-12-28T22:48:38.707Z,2.35
2022-12-28T22:51:09.592Z,2.40
2022-12-28T22:53:37.112Z,2.77
2022-12-28T22:56:09.337Z,1.80
2022-12-28T22:58:36.999Z,2.20
2022-12-28T23:01:06.916Z,2.40
2022-12-28T23:03:34.949Z,2.73
2022-12-28T23:06:01.765Z,1.90
2022-12-28T23:08:28.574Z,2.00
2022-12-28T23:10:59.345Z,2.50
2022-12-28T23:13:28.489Z,1.83
2022-12-28T23:16:00.480Z,2.42
2022-12-28T23:18:47.680Z,2.00
2022-12-28T23:21:42.803Z,2.20
2022-12-28T23:24:31.554Z,2.13
2022-12-28T23:27:18.404Z,1.90
2022-12-28T23:29:46.230Z,2.33
2022-12-28T23:32:14.063Z,1.80
2022-12-28T23:34:40.821Z,1.92
2022-12-28T23:37:07.708Z,2.10
2022-12-28T23:39:34.513Z,1.92
2022-12-28T23:42:01.282Z,1.87
2022-12-28T23:44:28.135Z,2.22
2022-12-28T23:46:58.924Z,1.83
2022-12-28T23:49:26.873Z,1.90
2022-12-28T23:51:53.796Z,1.83
2022-12-28T23:54:20.712Z,1.67
2022-12-28T23:56:48.800Z,1.70
2022-12-28T23:59:15.886Z,1.97
